Tecuci, Romania

9:58 PM EEST on September 30, 2016 (GMT +0300)
Bacau | | Change Station

Elev 607 ft 46.52 °N, 26.91 °E | Updated 58 minutes ago

Clear
Clear
68 °F
Feels Like 68 °F
N
9
Wind Variable Wind from SSE

Today
High -- | Low -- °F
--% Chance of Precip.
Yesterday
High -- | Low -- °F
Precip. -- in
Pressure 30.06 in
Visibility -9999.0 miles
Clouds
Dew Point 55 °F
Humidity 64%
Rainfall 0.00 in
Snow Depth Not available.
7:07 AM 6:51 PM
Waning Crescent, 0% visible
METAR LRBC 301800Z 16008KT CAVOK 20/13 Q1018
Pressure 30.06 in
Visibility -9999.0 miles
Clouds
Dew Point 55 °F
Humidity 64%
Rainfall 0.00 in
Snow Depth Not available.
7:07 AM 6:51 PM
Waning Crescent, 0% visible
METAR LRBC 301800Z 16008KT CAVOK 20/13 Q1018

10-Day Weather Forecast

×

Almanac

Astronomy

Sep. 30, 2016 Rise Set
Actual Time
Civil Twilight
Nautical Twilight
Astronomical Twilight
Moon
Length of Visible Light
Length of Day
Tomorrow will be .
, % of the Moon is Illuminated

Today's Extremes

Country Highs Country Lows

Community

WunderPhotos

Upload Photos

1,942,755 photos uploaded!

WunderBlog® & News

Nearby

Air Quality

  Air Quality AQ Index Pollutant
Not available.

Snow Depth

Station Depth Elevation

Earthquake Activity

City Distance Mag. Time & Date
Minimum magnitude displayed is 2.5.

Coastal Water Temperatures

Place Temperature

Stations

Nearby Weather Stations

Station Location Temp. Windchill Dew Point Humidity Wind Precip. Elev Updated Type